sensor_id;sensor_type;location;lat;lon;timestamp;P1;durP1;ratioP1;P2;durP2;ratioP2
53287;SDS011;39172;45.550;12.072;2023-04-24T00:05:04;8.10;;;6.50;;
53287;SDS011;39172;45.550;12.072;2023-04-24T00:11:06;7.03;;;6.32;;
53287;SDS011;39172;45.550;12.072;2023-04-24T00:17:06;7.63;;;6.22;;
53287;SDS011;39172;45.550;12.072;2023-04-24T00:23:07;7.22;;;5.60;;
53287;SDS011;39172;45.550;12.072;2023-04-24T00:29:08;6.80;;;6.07;;
53287;SDS011;39172;45.550;12.072;2023-04-24T00:35:09;7.50;;;6.22;;
53287;SDS011;39172;45.550;12.072;2023-04-24T00:41:11;7.85;;;6.07;;
53287;SDS011;39172;45.550;12.072;2023-04-24T00:47:13;7.53;;;6.60;;
53287;SDS011;39172;45.550;12.072;2023-04-24T00:53:15;8.48;;;7.10;;
53287;SDS011;39172;45.550;12.072;2023-04-24T00:59:16;6.97;;;6.28;;
53287;SDS011;39172;45.550;12.072;2023-04-24T01:05:17;6.88;;;6.18;;
53287;SDS011;39172;45.550;12.072;2023-04-24T01:11:20;7.05;;;6.35;;
53287;SDS011;39172;45.550;12.072;2023-04-24T01:17:21;7.78;;;6.60;;
53287;SDS011;39172;45.550;12.072;2023-04-24T01:23:22;7.95;;;7.00;;
53287;SDS011;39172;45.550;12.072;2023-04-24T01:29:23;7.70;;;6.88;;
53287;SDS011;39172;45.550;12.072;2023-04-24T01:35:24;9.48;;;6.80;;
53287;SDS011;39172;45.550;12.072;2023-04-24T01:41:25;7.70;;;6.40;;
53287;SDS011;39172;45.550;12.072;2023-04-24T01:47:26;8.30;;;6.57;;
53287;SDS011;39172;45.550;12.072;2023-04-24T01:53:27;7.75;;;6.65;;
53287;SDS011;39172;45.550;12.072;2023-04-24T01:59:28;7.25;;;5.88;;
53287;SDS011;39172;45.550;12.072;2023-04-24T02:05:30;8.15;;;6.63;;
53287;SDS011;39172;45.550;12.072;2023-04-24T02:11:31;7.90;;;6.72;;
53287;SDS011;39172;45.550;12.072;2023-04-24T02:17:32;7.32;;;6.32;;
53287;SDS011;39172;45.550;12.072;2023-04-24T02:23:33;8.30;;;6.97;;
53287;SDS011;39172;45.550;12.072;2023-04-24T02:29:34;7.82;;;6.93;;
53287;SDS011;39172;45.550;12.072;2023-04-24T02:35:34;8.23;;;6.90;;
53287;SDS011;39172;45.550;12.072;2023-04-24T02:41:35;7.53;;;6.60;;
53287;SDS011;39172;45.550;12.072;2023-04-24T02:47:36;7.53;;;6.72;;
53287;SDS011;39172;45.550;12.072;2023-04-24T02:53:37;8.13;;;6.65;;
53287;SDS011;39172;45.550;12.072;2023-04-24T02:59:38;8.88;;;6.80;;
53287;SDS011;39172;45.550;12.072;2023-04-24T03:05:39;8.90;;;6.47;;
53287;SDS011;39172;45.550;12.072;2023-04-24T03:11:40;8.73;;;6.75;;
53287;SDS011;39172;45.550;12.072;2023-04-24T03:17:42;6.93;;;5.95;;
53287;SDS011;39172;45.550;12.072;2023-04-24T03:23:43;7.38;;;5.88;;
53287;SDS011;39172;45.550;12.072;2023-04-24T03:29:44;6.00;;;5.15;;
53287;SDS011;39172;45.550;12.072;2023-04-24T03:35:46;5.57;;;5.07;;
53287;SDS011;39172;45.550;12.072;2023-04-24T03:41:47;5.10;;;4.60;;
53287;SDS011;39172;45.550;12.072;2023-04-24T03:47:53;4.75;;;4.25;;
53287;SDS011;39172;45.550;12.072;2023-04-24T03:53:54;6.28;;;5.68;;
53287;SDS011;39172;45.550;12.072;2023-04-24T03:59:57;5.90;;;5.30;;
53287;SDS011;39172;45.550;12.072;2023-04-24T04:05:59;6.10;;;4.43;;
53287;SDS011;39172;45.550;12.072;2023-04-24T04:12:01;5.07;;;3.72;;
53287;SDS011;39172;45.550;12.072;2023-04-24T04:18:03;4.00;;;3.50;;
53287;SDS011;39172;45.550;12.072;2023-04-24T04:24:05;4.80;;;3.65;;
53287;SDS011;39172;45.550;12.072;2023-04-24T04:30:11;4.00;;;3.60;;
53287;SDS011;39172;45.550;12.072;2023-04-24T04:36:23;4.20;;;3.58;;
53287;SDS011;39172;45.550;12.072;2023-04-24T04:42:30;3.75;;;3.33;;
53287;SDS011;39172;45.550;12.072;2023-04-24T04:48:33;3.42;;;2.90;;
53287;SDS011;39172;45.550;12.072;2023-04-24T04:54:36;6.25;;;5.18;;
53287;SDS011;39172;45.550;12.072;2023-04-24T05:00:37;7.60;;;6.30;;
53287;SDS011;39172;45.550;12.072;2023-04-24T05:06:48;5.90;;;5.30;;
53287;SDS011;39172;45.550;12.072;2023-04-24T05:12:49;6.88;;;4.90;;
53287;SDS011;39172;45.550;12.072;2023-04-24T05:18:50;7.70;;;5.82;;
53287;SDS011;39172;45.550;12.072;2023-04-24T05:24:55;7.22;;;6.50;;
53287;SDS011;39172;45.550;12.072;2023-04-24T05:31:10;7.07;;;5.97;;
53287;SDS011;39172;45.550;12.072;2023-04-24T05:37:11;6.88;;;5.57;;
53287;SDS011;39172;45.550;12.072;2023-04-24T05:43:12;7.35;;;5.40;;
53287;SDS011;39172;45.550;12.072;2023-04-24T05:49:14;7.20;;;5.80;;
53287;SDS011;39172;45.550;12.072;2023-04-24T05:55:15;6.25;;;5.40;;
53287;SDS011;39172;45.550;12.072;2023-04-24T06:01:19;5.63;;;4.75;;
53287;SDS011;39172;45.550;12.072;2023-04-24T06:07:26;6.60;;;4.80;;
53287;SDS011;39172;45.550;12.072;2023-04-24T06:13:27;7.47;;;5.72;;
53287;SDS011;39172;45.550;12.072;2023-04-24T06:19:46;6.57;;;5.80;;
53287;SDS011;39172;45.550;12.072;2023-04-24T06:25:48;5.38;;;4.80;;
53287;SDS011;39172;45.550;12.072;2023-04-24T06:31:50;5.18;;;4.60;;
53287;SDS011;39172;45.550;12.072;2023-04-24T06:37:51;6.20;;;4.30;;
53287;SDS011;39172;45.550;12.072;2023-04-24T06:43:52;5.88;;;4.75;;
53287;SDS011;39172;45.550;12.072;2023-04-24T06:49:53;5.43;;;4.68;;
53287;SDS011;39172;45.550;12.072;2023-04-24T06:55:54;5.40;;;4.50;;
53287;SDS011;39172;45.550;12.072;2023-04-24T07:01:55;4.25;;;3.78;;
53287;SDS011;39172;45.550;12.072;2023-04-24T07:07:56;6.25;;;4.10;;
53287;SDS011;39172;45.550;12.072;2023-04-24T07:13:58;5.38;;;4.40;;
53287;SDS011;39172;45.550;12.072;2023-04-24T07:19:59;6.82;;;5.68;;
53287;SDS011;39172;45.550;12.072;2023-04-24T07:26:00;6.35;;;5.15;;
53287;SDS011;39172;45.550;12.072;2023-04-24T07:32:01;6.85;;;5.93;;
53287;SDS011;39172;45.550;12.072;2023-04-24T07:38:02;7.28;;;5.82;;
53287;SDS011;39172;45.550;12.072;2023-04-24T07:44:03;16.33;;;11.93;;
53287;SDS011;39172;45.550;12.072;2023-04-24T07:50:04;10.18;;;7.80;;
53287;SDS011;39172;45.550;12.072;2023-04-24T07:56:06;9.55;;;7.68;;
53287;SDS011;39172;45.550;12.072;2023-04-24T08:02:07;6.65;;;5.30;;
53287;SDS011;39172;45.550;12.072;2023-04-24T08:08:08;8.38;;;6.82;;
53287;SDS011;39172;45.550;12.072;2023-04-24T08:14:09;6.40;;;5.05;;
53287;SDS011;39172;45.550;12.072;2023-04-24T08:20:10;5.47;;;4.95;;
53287;SDS011;39172;45.550;12.072;2023-04-24T08:26:14;5.88;;;4.90;;
53287;SDS011;39172;45.550;12.072;2023-04-24T08:32:15;5.20;;;4.55;;
53287;SDS011;39172;45.550;12.072;2023-04-24T08:38:16;6.15;;;4.90;;
53287;SDS011;39172;45.550;12.072;2023-04-24T08:44:17;5.45;;;4.32;;
53287;SDS011;39172;45.550;12.072;2023-04-24T08:50:19;5.00;;;4.50;;
53287;SDS011;39172;45.550;12.072;2023-04-24T08:56:21;4.20;;;3.75;;
53287;SDS011;39172;45.550;12.072;2023-04-24T09:02:24;3.33;;;2.90;;
53287;SDS011;39172;45.550;12.072;2023-04-24T09:08:26;2.50;;;2.30;;
53287;SDS011;39172;45.550;12.072;2023-04-24T09:14:27;2.50;;;2.13;;
53287;SDS011;39172;45.550;12.072;2023-04-24T09:20:29;1.80;;;1.70;;
53287;SDS011;39172;45.550;12.072;2023-04-24T09:26:34;2.83;;;2.00;;
53287;SDS011;39172;45.550;12.072;2023-04-24T09:32:36;2.50;;;2.30;;
53287;SDS011;39172;45.550;12.072;2023-04-24T09:38:37;2.13;;;1.90;;
53287;SDS011;39172;45.550;12.072;2023-04-24T09:44:38;2.22;;;2.00;;
53287;SDS011;39172;45.550;12.072;2023-04-24T09:50:39;2.00;;;1.55;;
53287;SDS011;39172;45.550;12.072;2023-04-24T09:56:47;2.88;;;2.17;;
53287;SDS011;39172;45.550;12.072;2023-04-24T10:02:58;2.45;;;2.15;;
53287;SDS011;39172;45.550;12.072;2023-04-24T10:09:00;1.98;;;1.77;;
53287;SDS011;39172;45.550;12.072;2023-04-24T10:15:01;3.22;;;2.67;;
53287;SDS011;39172;45.550;12.072;2023-04-24T10:21:03;3.78;;;2.90;;
53287;SDS011;39172;45.550;12.072;2023-04-24T10:27:04;3.65;;;2.65;;
53287;SDS011;39172;45.550;12.072;2023-04-24T10:33:07;2.85;;;2.30;;
53287;SDS011;39172;45.550;12.072;2023-04-24T10:39:09;2.20;;;2.00;;
53287;SDS011;39172;45.550;12.072;2023-04-24T10:45:21;2.22;;;1.80;;
53287;SDS011;39172;45.550;12.072;2023-04-24T10:51:23;2.10;;;1.90;;
53287;SDS011;39172;45.550;12.072;2023-04-24T10:57:27;3.00;;;1.85;;
53287;SDS011;39172;45.550;12.072;2023-04-24T11:03:32;2.70;;;1.98;;
53287;SDS011;39172;45.550;12.072;2023-04-24T11:09:33;2.22;;;2.03;;
53287;SDS011;39172;45.550;12.072;2023-04-24T11:15:35;2.00;;;1.80;;
53287;SDS011;39172;45.550;12.072;2023-04-24T11:27:42;2.22;;;1.90;;
53287;SDS011;39172;45.550;12.072;2023-04-24T11:33:44;2.75;;;2.10;;
53287;SDS011;39172;45.550;12.072;2023-04-24T11:39:45;2.30;;;2.05;;
53287;SDS011;39172;45.550;12.072;2023-04-24T11:45:48;2.42;;;2.10;;
53287;SDS011;39172;45.550;12.072;2023-04-24T11:51:49;3.03;;;2.42;;
53287;SDS011;39172;45.550;12.072;2023-04-24T11:57:51;4.10;;;2.17;;
53287;SDS011;39172;45.550;12.072;2023-04-24T12:03:58;2.33;;;1.95;;
53287;SDS011;39172;45.550;12.072;2023-04-24T12:10:00;2.25;;;1.70;;
53287;SDS011;39172;45.550;12.072;2023-04-24T12:16:04;2.72;;;1.90;;
53287;SDS011;39172;45.550;12.072;2023-04-24T12:22:05;1.65;;;1.40;;
53287;SDS011;39172;45.550;12.072;2023-04-24T12:34:20;1.20;;;1.10;;
53287;SDS011;39172;45.550;12.072;2023-04-24T12:40:21;1.05;;;0.95;;
53287;SDS011;39172;45.550;12.072;2023-04-24T12:46:22;2.20;;;1.00;;
53287;SDS011;39172;45.550;12.072;2023-04-24T12:52:24;1.00;;;0.90;;
53287;SDS011;39172;45.550;12.072;2023-04-24T12:58:26;1.27;;;0.93;;
53287;SDS011;39172;45.550;12.072;2023-04-24T13:04:27;1.00;;;0.80;;
53287;SDS011;39172;45.550;12.072;2023-04-24T13:10:27;0.95;;;0.70;;
53287;SDS011;39172;45.550;12.072;2023-04-24T13:16:28;1.00;;;0.80;;
53287;SDS011;39172;45.550;12.072;2023-04-24T13:22:29;1.80;;;0.80;;
53287;SDS011;39172;45.550;12.072;2023-04-24T13:28:30;0.90;;;0.80;;
53287;SDS011;39172;45.550;12.072;2023-04-24T13:34:31;0.85;;;0.75;;
53287;SDS011;39172;45.550;12.072;2023-04-24T13:40:32;0.80;;;0.70;;
53287;SDS011;39172;45.550;12.072;2023-04-24T13:46:33;1.42;;;0.85;;
53287;SDS011;39172;45.550;12.072;2023-04-24T13:52:34;0.65;;;0.60;;
53287;SDS011;39172;45.550;12.072;2023-04-24T13:58:35;1.00;;;0.70;;
53287;SDS011;39172;45.550;12.072;2023-04-24T14:04:39;0.60;;;0.50;;
53287;SDS011;39172;45.550;12.072;2023-04-24T14:10:40;2.03;;;0.60;;
53287;SDS011;39172;45.550;12.072;2023-04-24T14:16:41;0.80;;;0.60;;
53287;SDS011;39172;45.550;12.072;2023-04-24T14:22:42;0.98;;;0.50;;
53287;SDS011;39172;45.550;12.072;2023-04-24T14:28:43;0.50;;;0.50;;
53287;SDS011;39172;45.550;12.072;2023-04-24T14:34:44;0.80;;;0.50;;
53287;SDS011;39172;45.550;12.072;2023-04-24T14:40:44;1.20;;;0.80;;
53287;SDS011;39172;45.550;12.072;2023-04-24T14:46:45;0.65;;;0.50;;
53287;SDS011;39172;45.550;12.072;2023-04-24T14:52:47;1.23;;;0.60;;
53287;SDS011;39172;45.550;12.072;2023-04-24T14:58:48;0.52;;;0.50;;
53287;SDS011;39172;45.550;12.072;2023-04-24T15:04:49;0.70;;;0.60;;
53287;SDS011;39172;45.550;12.072;2023-04-24T15:10:50;0.60;;;0.60;;
53287;SDS011;39172;45.550;12.072;2023-04-24T15:16:51;0.60;;;0.50;;
53287;SDS011;39172;45.550;12.072;2023-04-24T15:22:52;1.00;;;0.70;;
53287;SDS011;39172;45.550;12.072;2023-04-24T15:28:53;0.85;;;0.60;;
53287;SDS011;39172;45.550;12.072;2023-04-24T15:34:54;0.57;;;0.50;;
53287;SDS011;39172;45.550;12.072;2023-04-24T15:40:55;0.70;;;0.60;;
53287;SDS011;39172;45.550;12.072;2023-04-24T15:46:56;0.80;;;0.70;;
53287;SDS011;39172;45.550;12.072;2023-04-24T15:53:00;0.70;;;0.63;;
53287;SDS011;39172;45.550;12.072;2023-04-24T15:59:01;0.60;;;0.60;;
53287;SDS011;39172;45.550;12.072;2023-04-24T16:05:02;0.80;;;0.65;;
53287;SDS011;39172;45.550;12.072;2023-04-24T16:11:04;0.70;;;0.60;;
53287;SDS011;39172;45.550;12.072;2023-04-24T16:17:05;0.50;;;0.50;;
53287;SDS011;39172;45.550;12.072;2023-04-24T16:23:06;0.60;;;0.60;;
53287;SDS011;39172;45.550;12.072;2023-04-24T16:29:07;0.80;;;0.70;;
53287;SDS011;39172;45.550;12.072;2023-04-24T16:35:08;1.20;;;0.70;;
53287;SDS011;39172;45.550;12.072;2023-04-24T16:41:09;0.73;;;0.68;;
53287;SDS011;39172;45.550;12.072;2023-04-24T16:47:10;0.70;;;0.70;;
53287;SDS011;39172;45.550;12.072;2023-04-24T16:53:12;1.10;;;0.90;;
53287;SDS011;39172;45.550;12.072;2023-04-24T16:59:13;1.23;;;0.90;;
53287;SDS011;39172;45.550;12.072;2023-04-24T17:05:13;1.20;;;1.08;;
53287;SDS011;39172;45.550;12.072;2023-04-24T17:11:14;1.27;;;1.10;;
53287;SDS011;39172;45.550;12.072;2023-04-24T17:17:15;1.17;;;0.82;;
53287;SDS011;39172;45.550;12.072;2023-04-24T17:23:18;0.90;;;0.80;;
53287;SDS011;39172;45.550;12.072;2023-04-24T17:29:20;0.80;;;0.80;;
53287;SDS011;39172;45.550;12.072;2023-04-24T17:35:21;1.30;;;0.90;;
53287;SDS011;39172;45.550;12.072;2023-04-24T17:41:21;1.35;;;0.98;;
53287;SDS011;39172;45.550;12.072;2023-04-24T17:47:22;1.00;;;0.80;;
53287;SDS011;39172;45.550;12.072;2023-04-24T17:53:25;1.35;;;1.10;;
53287;SDS011;39172;45.550;12.072;2023-04-24T17:59:26;1.30;;;1.00;;
53287;SDS011;39172;45.550;12.072;2023-04-24T18:05:27;1.27;;;0.90;;
53287;SDS011;39172;45.550;12.072;2023-04-24T18:11:28;0.80;;;0.80;;
53287;SDS011;39172;45.550;12.072;2023-04-24T18:17:29;1.48;;;1.05;;
53287;SDS011;39172;45.550;12.072;2023-04-24T18:23:31;1.00;;;0.90;;
53287;SDS011;39172;45.550;12.072;2023-04-24T18:29:32;0.85;;;0.80;;
53287;SDS011;39172;45.550;12.072;2023-04-24T18:35:33;0.80;;;0.80;;
53287;SDS011;39172;45.550;12.072;2023-04-24T18:41:34;1.15;;;1.00;;
53287;SDS011;39172;45.550;12.072;2023-04-24T18:47:35;0.90;;;0.80;;
53287;SDS011;39172;45.550;12.072;2023-04-24T18:53:36;1.20;;;1.00;;
53287;SDS011;39172;45.550;12.072;2023-04-24T18:59:37;1.33;;;1.02;;
53287;SDS011;39172;45.550;12.072;2023-04-24T19:05:38;1.58;;;1.10;;
53287;SDS011;39172;45.550;12.072;2023-04-24T19:11:39;1.15;;;1.02;;
53287;SDS011;39172;45.550;12.072;2023-04-24T19:17:41;1.30;;;1.15;;
53287;SDS011;39172;45.550;12.072;2023-04-24T19:23:42;1.08;;;0.90;;
53287;SDS011;39172;45.550;12.072;2023-04-24T19:29:44;0.90;;;0.80;;
53287;SDS011;39172;45.550;12.072;2023-04-24T19:35:45;1.38;;;1.20;;
53287;SDS011;39172;45.550;12.072;2023-04-24T19:41:46;1.30;;;1.10;;
53287;SDS011;39172;45.550;12.072;2023-04-24T19:47:47;1.80;;;1.00;;
53287;SDS011;39172;45.550;12.072;2023-04-24T19:53:48;1.25;;;1.08;;
53287;SDS011;39172;45.550;12.072;2023-04-24T19:59:49;1.75;;;1.40;;
53287;SDS011;39172;45.550;12.072;2023-04-24T20:05:50;1.50;;;1.20;;
53287;SDS011;39172;45.550;12.072;2023-04-24T20:11:51;1.75;;;1.38;;
53287;SDS011;39172;45.550;12.072;2023-04-24T20:17:53;1.30;;;1.20;;
53287;SDS011;39172;45.550;12.072;2023-04-24T20:23:54;1.52;;;1.30;;
53287;SDS011;39172;45.550;12.072;2023-04-24T20:29:55;1.83;;;1.58;;
53287;SDS011;39172;45.550;12.072;2023-04-24T20:35:56;2.30;;;1.90;;
53287;SDS011;39172;45.550;12.072;2023-04-24T20:41:57;3.20;;;2.50;;
53287;SDS011;39172;45.550;12.072;2023-04-24T20:47:58;3.40;;;2.70;;
53287;SDS011;39172;45.550;12.072;2023-04-24T20:53:59;3.65;;;2.60;;
53287;SDS011;39172;45.550;12.072;2023-04-24T21:00:00;3.65;;;2.60;;
53287;SDS011;39172;45.550;12.072;2023-04-24T21:06:02;2.42;;;2.03;;
53287;SDS011;39172;45.550;12.072;2023-04-24T21:12:03;2.85;;;2.00;;
53287;SDS011;39172;45.550;12.072;2023-04-24T21:18:04;2.35;;;1.88;;
53287;SDS011;39172;45.550;12.072;2023-04-24T21:24:06;2.40;;;1.80;;
53287;SDS011;39172;45.550;12.072;2023-04-24T21:30:07;2.83;;;2.40;;
53287;SDS011;39172;45.550;12.072;2023-04-24T21:36:08;2.22;;;1.88;;
53287;SDS011;39172;45.550;12.072;2023-04-24T21:42:09;2.33;;;1.95;;
53287;SDS011;39172;45.550;12.072;2023-04-24T21:48:10;2.42;;;1.90;;
53287;SDS011;39172;45.550;12.072;2023-04-24T21:54:11;2.15;;;1.60;;
53287;SDS011;39172;45.550;12.072;2023-04-24T22:00:12;2.50;;;2.25;;
53287;SDS011;39172;45.550;12.072;2023-04-24T22:06:14;3.47;;;2.78;;
53287;SDS011;39172;45.550;12.072;2023-04-24T22:12:14;3.08;;;2.45;;
53287;SDS011;39172;45.550;12.072;2023-04-24T22:18:15;3.15;;;2.60;;
53287;SDS011;39172;45.550;12.072;2023-04-24T22:24:19;2.10;;;1.90;;
53287;SDS011;39172;45.550;12.072;2023-04-24T22:30:20;2.83;;;2.30;;
53287;SDS011;39172;45.550;12.072;2023-04-24T22:36:21;2.70;;;2.30;;
53287;SDS011;39172;45.550;12.072;2023-04-24T22:42:22;3.22;;;2.60;;
53287;SDS011;39172;45.550;12.072;2023-04-24T22:48:23;3.30;;;2.80;;
53287;SDS011;39172;45.550;12.072;2023-04-24T22:54:25;3.53;;;2.83;;
53287;SDS011;39172;45.550;12.072;2023-04-24T23:00:26;3.42;;;2.85;;
53287;SDS011;39172;45.550;12.072;2023-04-24T23:06:27;3.00;;;2.70;;
53287;SDS011;39172;45.550;12.072;2023-04-24T23:12:28;2.13;;;1.92;;
53287;SDS011;39172;45.550;12.072;2023-04-24T23:18:29;2.75;;;2.15;;
53287;SDS011;39172;45.550;12.072;2023-04-24T23:24:30;2.63;;;2.30;;
53287;SDS011;39172;45.550;12.072;2023-04-24T23:30:31;2.42;;;2.20;;
53287;SDS011;39172;45.550;12.072;2023-04-24T23:36:32;2.63;;;2.42;;
53287;SDS011;39172;45.550;12.072;2023-04-24T23:42:33;3.15;;;2.67;;
53287;SDS011;39172;45.550;12.072;2023-04-24T23:48:34;2.47;;;2.20;;
53287;SDS011;39172;45.550;12.072;2023-04-24T23:54:36;2.60;;;2.30;;
